Time;durP1;ratioP1;P1;durP2;ratioP2;P2;SDS_P1;SDS_P2;PMS_P1;PMS_P2;Temp;Humidity;BMP_temperature;BMP_pressure;BME280_temperature;BME280_humidity;BME280_pressure;Samples;Min_cycle;Max_cycle;Signal;HPM_P1;HPM_P2
2022/05/13 00:00:10;;;;;;;6.58;2.35;;;;;;;9.87;62.17;101185.13;1795838;77;21105;-87
2022/05/13 00:02:38;;;;;;;3.87;2.27;;;;;;;9.86;62.30;101189.89;1807797;77;22584;-83
2022/05/13 00:05:07;;;;;;;6.90;2.42;;;;;;;9.85;62.33;101188.52;1793825;78;22406;-83
2022/05/13 00:07:34;;;;;;;11.45;2.52;;;;;;;9.85;62.44;101188.52;1771419;78;21049;-83
2022/05/13 00:10:05;;;;;;;7.15;2.42;;;;;;;9.86;62.56;101186.37;1791966;77;21109;-87
2022/05/13 00:12:31;;;;;;;4.60;2.25;;;;;;;9.92;62.71;101191.41;1817879;78;21645;-86
2022/05/13 00:14:58;;;;;;;5.83;2.30;;;;;;;9.99;62.78;101189.91;1822368;78;21058;-83
2022/05/13 00:17:25;;;;;;;6.05;2.45;;;;;;;10.07;62.82;101197.62;1824337;77;21736;-85
2022/05/13 00:20:58;;;;;;;6.60;2.50;;;;;;;10.13;62.82;101186.41;1805768;78;21019;-89
2022/05/13 00:23:29;;;;;;;6.22;2.15;;;;;;;10.16;62.82;101190.48;1792397;79;21049;-89
2022/05/13 00:25:56;;;;;;;11.18;2.33;;;;;;;10.20;62.75;101198.05;1832429;77;21022;-84
2022/05/13 00:28:25;;;;;;;5.62;2.05;;;;;;;10.17;62.74;101192.25;1792271;79;21019;-89
2022/05/13 00:30:51;;;;;;;6.58;2.77;;;;;;;10.14;62.80;101188.64;1791953;77;21762;-82
2022/05/13 00:33:19;;;;;;;8.75;2.70;;;;;;;10.08;62.86;101190.65;1791485;78;21062;-83
2022/05/13 00:35:45;;;;;;;8.15;2.80;;;;;;;10.03;62.93;101185.22;1811449;77;21082;-85
2022/05/13 00:38:12;;;;;;;7.72;2.30;;;;;;;10.00;63.05;101186.84;1793179;77;20963;-83
2022/05/13 00:40:42;;;;;;;6.95;2.52;;;;;;;9.96;63.14;101188.47;1808980;77;21048;-88
2022/05/13 00:43:11;;;;;;;9.20;2.30;;;;;;;9.92;63.31;101182.64;1795742;77;21745;-84
2022/05/13 00:45:38;;;;;;;6.67;2.20;;;;;;;9.90;63.42;101176.00;1769958;79;21038;-83
2022/05/13 00:48:06;;;;;;;8.28;2.90;;;;;;;9.90;63.57;101180.38;1762402;78;21063;-83
2022/05/13 00:50:35;;;;;;;6.53;2.42;;;;;;;9.89;63.63;101180.81;1778319;78;21595;-83
2022/05/13 00:53:02;;;;;;;8.35;2.35;;;;;;;9.89;63.75;101174.23;1782144;80;21554;-87
2022/05/13 00:55:34;;;;;;;5.28;2.33;;;;;;;9.91;63.84;101169.03;1759703;80;22545;-86
2022/05/13 00:58:04;;;;;;;5.28;2.37;;;;;;;9.91;63.81;101177.81;1760134;80;21544;-85
2022/05/13 01:00:31;;;;;;;9.05;2.15;;;;;;;9.91;63.83;101170.34;1759697;80;21057;-85
2022/05/13 01:02:58;;;;;;;8.65;2.75;;;;;;;9.92;63.93;101170.80;1759948;80;21029;-83
2022/05/13 01:05:25;;;;;;;8.73;2.62;;;;;;;9.95;63.96;101172.23;1759527;78;21220;-83
2022/05/13 01:07:52;;;;;;;7.83;2.30;;;;;;;9.97;64.01;101166.61;1759305;80;21777;-83
2022/05/13 01:10:22;;;;;;;10.78;2.80;;;;;;;9.99;64.02;101168.86;1764116;80;21081;-88
2022/05/13 01:12:53;;;;;;;7.03;2.75;;;;;;;10.02;64.06;101170.69;1774267;80;21100;-88
2022/05/13 01:15:28;;;;;;;7.08;2.17;;;;;;;10.05;64.09;101164.23;1766213;78;21571;-87
2022/05/13 01:18:15;;;;;;;9.68;2.05;;;;;;;10.10;64.12;101166.61;1792574;78;21068;-83
2022/05/13 01:20:30;;;;;;;8.93;3.15;;;;;;;10.15;64.09;101164.11;1755093;78;22619;-88
2022/05/13 01:23:01;;;;;;;6.72;1.98;;;;;;;10.16;64.13;101151.45;1788329;80;21132;-82
2022/05/13 01:25:30;;;;;;;7.80;2.08;;;;;;;10.10;64.07;101133.72;1787002;80;21049;-88
2022/05/13 01:28:06;;;;;;;7.05;2.25;;;;;;;10.26;64.04;101157.03;1782409;80;21081;-84
2022/05/13 01:30:34;;;;;;;8.68;1.98;;;;;;;10.28;63.99;101159.72;1733334;80;21061;-88
2022/05/13 01:33:00;;;;;;;7.75;2.47;;;;;;;10.27;63.95;101161.90;1780235;80;21725;-87
2022/05/13 01:35:27;;;;;;;9.23;1.90;;;;;;;10.24;63.99;101163.98;1758543;78;21542;-84
2022/05/13 01:37:54;;;;;;;5.25;1.87;;;;;;;10.23;63.94;101162.22;1759756;80;21631;-84
2022/05/13 01:40:21;;;;;;;5.05;1.95;;;;;;;10.21;64.02;101167.86;1759689;80;21091;-83
2022/05/13 01:42:48;;;;;;;9.00;2.45;;;;;;;10.18;64.02;101167.74;1759871;79;21163;-87
2022/05/13 01:45:15;;;;;;;7.67;1.80;;;;;;;10.18;64.12;101172.12;1773783;76;22543;-83
2022/05/13 01:47:41;;;;;;;6.85;2.08;;;;;;;10.17;64.12;101167.25;1817766;78;21082;-83
2022/05/13 01:50:09;;;;;;;6.87;2.52;;;;;;;10.18;64.19;101165.54;1798239;78;21302;-87
2022/05/13 01:52:43;;;;;;;5.08;1.85;;;;;;;10.20;64.20;101167.37;1797224;78;21022;-88
2022/05/13 01:55:10;;;;;;;6.80;2.02;;;;;;;10.22;64.16;101164.36;1808050;77;21022;-88
2022/05/13 01:57:50;;;;;;;6.90;2.50;;;;;;;10.25;64.15;101155.70;1821998;77;21842;-87
2022/05/13 02:00:17;;;;;;;5.10;1.90;;;;;;;10.27;64.21;101158.84;1796889;77;21038;-83
2022/05/13 02:05:29;;;;;;;7.70;2.72;;;;;;;10.43;64.29;101158.93;1797176;77;21153;-84
2022/05/13 02:07:56;;;;;;;7.80;2.00;;;;;;;10.50;64.18;101154.77;1797482;78;21030;-84
2022/05/13 02:10:24;;;;;;;4.47;1.85;;;;;;;10.52;64.02;101151.77;1806411;77;22430;-89
2022/05/13 02:12:51;;;;;;;9.05;2.00;;;;;;;10.51;63.99;101150.00;1840136;77;21034;-88
2022/05/13 02:15:18;;;;;;;6.65;1.98;;;;;;;10.51;64.00;101151.31;1811377;76;21643;-83
2022/05/13 02:17:45;;;;;;;4.92;2.02;;;;;;;10.54;64.05;101150.50;1823237;77;21634;-84
2022/05/13 02:20:12;;;;;;;7.08;2.25;;;;;;;10.60;64.12;101152.00;1812893;77;21097;-83
2022/05/13 02:22:40;;;;;;;7.50;1.82;;;;;;;10.66;64.10;101154.81;1808071;77;21102;-83
2022/05/13 02:25:08;;;;;;;5.35;1.72;;;;;;;10.72;64.06;101148.84;1814831;78;21045;-83
2022/05/13 02:27:35;;;;;;;9.25;2.27;;;;;;;10.76;63.97;101141.53;1796822;77;21148;-88
2022/05/13 02:30:02;;;;;;;6.17;1.92;;;;;;;10.80;63.86;101146.05;1797463;78;21026;-88
2022/05/13 02:32:30;;;;;;;7.28;2.05;;;;;;;10.81;63.82;101137.28;1819470;77;21563;-88
2022/05/13 02:35:18;;;;;;;5.80;1.85;;;;;;;10.81;63.75;101139.91;1831211;77;21758;-89
2022/05/13 02:38:04;;;;;;;4.72;1.80;;;;;;;10.79;63.71;101138.58;1831332;77;21030;-90
2022/05/13 02:43:20;;;;;;;5.05;2.17;;;;;;;10.69;63.61;101140.01;1829909;78;21109;-89
2022/05/13 02:45:47;;;;;;;6.25;2.00;;;;;;;10.65;63.65;101146.03;1828136;77;21053;-83
2022/05/13 02:48:14;;;;;;;5.30;1.82;;;;;;;10.63;63.71;101150.36;1796930;77;22605;-88
2022/05/13 02:50:41;;;;;;;6.92;2.10;;;;;;;10.63;63.83;101147.73;1772440;79;20995;-84
2022/05/13 02:53:08;;;;;;;7.92;2.30;;;;;;;10.68;63.87;101147.89;1791492;77;21038;-89
2022/05/13 02:55:36;;;;;;;5.83;1.70;;;;;;;10.73;63.83;101152.84;1811464;78;21079;-87
2022/05/13 02:58:21;;;;;;;5.10;1.65;;;;;;;10.76;63.73;101142.42;1819517;78;21018;-90
2022/05/13 03:00:47;;;;;;;5.70;1.77;;;;;;;10.81;63.71;101151.36;1810602;78;27394;-84
2022/05/13 03:03:14;;;;;;;4.35;1.60;;;;;;;10.87;63.67;101141.44;1801150;77;21132;-84
2022/05/13 03:05:41;;;;;;;4.75;1.62;;;;;;;10.98;63.63;101137.78;1816969;78;21098;-88
2022/05/13 03:08:08;;;;;;;6.22;1.80;;;;;;;11.00;63.55;101126.86;1819566;78;21070;-83
2022/05/13 03:10:36;;;;;;;5.17;1.62;;;;;;;11.16;63.50;101140.95;1818947;77;21054;-83
2022/05/13 03:13:05;;;;;;;3.92;1.90;;;;;;;11.26;63.39;101140.39;1818599;78;21755;-83
2022/05/13 03:15:32;;;;;;;6.08;1.57;;;;;;;11.36;63.25;101145.48;1820835;78;21019;-89
2022/05/13 03:17:59;;;;;;;6.08;1.70;;;;;;;11.44;63.04;101138.67;1819698;78;21050;-86
2022/05/13 03:20:26;;;;;;;4.78;2.00;;;;;;;11.39;62.82;101119.23;1790616;78;21027;-84
2022/05/13 03:22:53;;;;;;;3.37;1.62;;;;;;;11.56;62.71;101139.86;1790049;78;21022;-90
2022/05/13 03:25:20;;;;;;;5.58;1.57;;;;;;;11.64;62.60;101137.02;1806973;78;21797;-85
2022/05/13 03:27:47;;;;;;;8.98;1.95;;;;;;;11.71;62.44;101136.74;1831330;77;21468;-85
2022/05/13 03:30:29;;;;;;;4.60;1.70;;;;;;;11.72;62.24;101128.87;1781019;80;21030;-90
2022/05/13 03:32:56;;;;;;;5.58;1.50;;;;;;;11.72;62.08;101126.67;1781432;79;21072;-85
2022/05/13 03:35:23;;;;;;;6.03;1.45;;;;;;;11.84;62.27;101130.53;1792156;77;21025;-85
2022/05/13 03:37:49;;;;;;;6.90;1.60;;;;;;;11.94;61.93;101131.69;1758317;80;21753;-89
2022/05/13 03:40:17;;;;;;;3.70;1.60;;;;;;;11.99;61.76;101132.70;1746804;81;21099;-86
2022/05/13 03:42:44;;;;;;;3.83;1.60;;;;;;;12.03;61.67;101134.56;1788657;80;21014;-89
2022/05/13 03:45:12;;;;;;;10.13;2.30;;;;;;;12.09;61.64;101131.19;1749306;80;21050;-85
2022/05/13 03:47:45;;;;;;;10.03;2.27;;;;;;;12.54;62.81;101127.86;1777058;80;21034;-89
2022/05/13 03:50:12;;;;;;;3.98;1.67;;;;;;;13.60;61.89;101126.55;1794640;78;21213;-90
2022/05/13 03:52:39;;;;;;;7.47;2.00;;;;;;;13.87;60.99;101123.93;1819454;78;21087;-90
2022/05/13 03:55:15;;;;;;;4.72;1.95;;;;;;;14.15;60.92;101119.99;1819131;78;21071;-89
2022/05/13 03:57:48;;;;;;;3.27;1.60;;;;;;;15.41;61.35;101120.86;1820470;78;21098;-89
2022/05/13 04:00:16;;;;;;;4.55;1.52;;;;;;;17.03;60.71;101114.66;1820762;78;21098;-85
2022/05/13 04:02:42;;;;;;;4.12;1.75;;;;;;;18.52;59.22;101113.08;1770283;78;21742;-90
2022/05/13 04:10:53;;;;;;;5.17;1.47;;;;;;;22.36;54.35;101107.66;1784467;80;21713;-86
2022/05/13 04:16:08;;;;;;;2.92;1.30;;;;;;;24.60;51.07;101113.84;1756726;80;21770;-86
2022/05/13 04:18:41;;;;;;;3.58;1.50;;;;;;;24.84;47.86;101116.31;1776694;79;21183;-90
2022/05/13 04:21:14;;;;;;;4.72;1.57;;;;;;;24.17;47.77;101117.16;1777386;79;21055;-85
2022/05/13 04:23:44;;;;;;;6.08;1.70;;;;;;;24.87;47.42;101118.02;1769708;79;21114;-84
2022/05/13 04:26:14;;;;;;;3.80;1.30;;;;;;;25.92;46.85;101113.06;1771658;80;21051;-85
2022/05/13 04:28:48;;;;;;;3.25;1.40;;;;;;;26.93;45.64;101114.04;1746100;81;22581;-85
2022/05/13 04:31:28;;;;;;;6.20;1.82;;;;;;;27.82;44.21;101108.36;1766129;78;21074;-90
2022/05/13 04:33:55;;;;;;;5.90;1.70;;;;;;;28.60;43.22;101105.52;1757111;80;21095;-87
2022/05/13 04:36:23;;;;;;;5.85;1.70;;;;;;;29.43;42.02;101104.39;1777216;80;21024;-87
2022/05/13 04:38:52;;;;;;;4.15;1.50;;;;;;;30.01;40.58;101106.09;1772386;80;21383;-92
2022/05/13 04:44:05;;;;;;;3.87;1.62;;;;;;;30.96;38.84;101107.06;1776615;80;21047;-88
2022/05/13 04:46:37;;;;;;;7.97;2.15;;;;;;;31.36;37.96;101112.48;1771998;79;21050;-89
2022/05/13 04:49:03;;;;;;;4.62;1.75;;;;;;;31.73;36.79;101108.19;1757198;81;21520;-89
2022/05/13 04:51:30;;;;;;;6.67;1.90;;;;;;;32.03;35.98;101112.34;1757490;80;21578;-91
2022/05/13 04:53:58;;;;;;;5.58;1.55;;;;;;;32.39;35.58;101115.18;1763809;80;21712;-88
2022/05/13 04:56:27;;;;;;;4.70;1.45;;;;;;;32.83;34.77;101107.97;1752072;80;21096;-90
2022/05/13 04:59:05;;;;;;;4.10;1.60;;;;;;;33.19;34.09;101118.93;1762113;81;21064;-88
2022/05/13 05:01:38;;;;;;;4.05;1.47;;;;;;;33.39;33.43;101117.61;1755438;79;21538;-90
2022/05/13 05:04:05;;;;;;;3.98;1.35;;;;;;;33.23;32.18;101117.75;1754223;79;21009;-85
2022/05/13 05:06:56;;;;;;;4.03;1.42;;;;;;;33.04;31.45;101109.84;1747816;80;22390;-89
2022/05/13 05:09:24;;;;;;;3.85;1.65;;;;;;;32.78;31.23;101117.81;1812394;78;21058;-87
2022/05/13 05:11:57;;;;;;;4.05;1.50;;;;;;;32.86;30.90;101117.33;1812519;78;21098;-91
2022/05/13 05:14:23;;;;;;;3.22;1.65;;;;;;;32.61;30.27;101112.05;1790869;78;24249;-88
2022/05/13 05:16:52;;;;;;;4.92;1.85;;;;;;;32.51;30.11;101110.81;1803486;79;21118;-86
2022/05/13 05:19:19;;;;;;;2.90;1.30;;;;;;;32.35;29.93;101103.59;1799227;77;22619;-84
2022/05/13 05:21:46;;;;;;;5.22;1.50;;;;;;;32.04;29.58;101117.30;1818470;77;21042;-84
2022/05/13 05:24:12;;;;;;;6.05;1.37;;;;;;;31.60;29.68;101122.12;1817753;77;21024;-85
2022/05/13 05:26:39;;;;;;;2.35;1.27;;;;;;;31.04;29.22;101123.81;1793372;77;21101;-88
2022/05/13 05:29:06;;;;;;;3.90;1.70;;;;;;;30.00;29.50;101121.51;1800745;77;21043;-87
2022/05/13 05:31:35;;;;;;;2.08;1.10;;;;;;;28.80;29.33;101133.07;1808718;77;21697;-87
2022/05/13 05:34:02;;;;;;;2.83;1.37;;;;;;;27.18;29.38;101123.91;1815913;77;21058;-83
2022/05/13 05:36:29;;;;;;;4.17;1.52;;;;;;;25.64;30.14;101134.61;1810538;77;21104;-88
2022/05/13 05:38:56;;;;;;;2.65;1.37;;;;;;;24.46;31.01;101129.00;1805338;77;21032;-89
2022/05/13 05:41:22;;;;;;;4.42;1.70;;;;;;;23.46;31.72;101138.10;1819355;77;21090;-89
2022/05/13 05:43:51;;;;;;;3.40;1.50;;;;;;;22.69;32.60;101136.97;1806570;77;21729;-86
2022/05/13 05:46:18;;;;;;;6.55;5.55;;;;;;;22.08;33.10;101145.16;1830275;77;21062;-85
2022/05/13 05:48:45;;;;;;;4.55;2.08;;;;;;;21.45;33.62;101132.70;1763321;79;21081;-86
2022/05/13 05:51:12;;;;;;;4.12;1.67;;;;;;;20.91;34.24;101143.17;1745892;81;21085;-85
2022/05/13 05:59:10;;;;;;;7.03;2.72;;;;;;;19.73;36.07;101118.41;1746947;81;21276;-90
2022/05/13 06:01:37;;;;;;;4.50;1.95;;;;;;;19.57;36.48;101142.48;1752106;81;21046;-84
2022/05/13 06:04:05;;;;;;;6.85;1.80;;;;;;;19.40;36.87;101138.58;1742664;80;21070;-88
2022/05/13 06:06:34;;;;;;;5.85;2.30;;;;;;;19.36;37.20;101143.95;1746204;81;21026;-87
2022/05/13 06:09:01;;;;;;;7.75;2.22;;;;;;;19.21;37.48;101146.24;1743176;81;21739;-85
2022/05/13 06:11:28;;;;;;;9.35;2.80;;;;;;;19.02;37.74;101152.10;1766948;80;21537;-87
2022/05/13 06:13:56;;;;;;;3.58;1.50;;;;;;;18.91;38.22;101145.45;1748735;81;21018;-90
2022/05/13 06:16:24;;;;;;;3.77;1.60;;;;;;;19.10;38.53;101152.95;1759938;80;21054;-85
2022/05/13 06:18:50;;;;;;;4.75;1.60;;;;;;;19.22;38.44;101139.57;1764585;81;21086;-87
2022/05/13 06:21:20;;;;;;;5.33;1.87;;;;;;;19.11;38.49;101105.38;1745243;81;21735;-90
2022/05/13 06:23:46;;;;;;;5.12;1.80;;;;;;;19.45;38.47;101145.70;1754656;80;21031;-87
2022/05/13 06:26:13;;;;;;;4.37;1.70;;;;;;;19.44;38.41;101144.79;1737700;81;21050;-92
2022/05/13 06:28:39;;;;;;;5.40;2.05;;;;;;;19.36;38.44;101143.50;1747088;81;21071;-86
2022/05/13 06:31:07;;;;;;;6.28;1.65;;;;;;;19.31;38.55;101137.73;1763430;81;20999;-94
2022/05/13 06:33:34;;;;;;;8.40;4.92;;;;;;;19.31;38.62;101139.08;1754830;81;22532;-91
2022/05/13 06:36:00;;;;;;;4.30;1.62;;;;;;;19.30;38.62;101145.33;1750538;81;21544;-88
2022/05/13 06:38:29;;;;;;;2.55;1.60;;;;;;;19.31;38.71;101139.95;1745409;81;21011;-95
2022/05/13 06:40:56;;;;;;;4.55;1.60;;;;;;;19.28;38.72;101142.66;1747245;80;20997;-89
2022/05/13 06:43:23;;;;;;;3.72;1.20;;;;;;;19.28;38.86;101143.99;1765905;79;21509;-92
2022/05/13 06:45:50;;;;;;;8.70;2.30;;;;;;;19.29;38.94;101140.41;1767064;81;21807;-94
2022/05/13 06:48:16;;;;;;;5.20;1.60;;;;;;;19.25;38.66;101144.00;1767655;80;21093;-93
2022/05/13 06:50:43;;;;;;;3.55;1.35;;;;;;;19.08;38.80;101141.40;1743930;79;21102;-85
2022/05/13 06:53:11;;;;;;;7.45;1.47;;;;;;;18.98;38.94;101143.67;1772693;80;21055;-94
2022/05/13 06:55:43;;;;;;;6.12;2.92;;;;;;;18.88;39.07;101144.58;1794276;79;21070;-93
2022/05/13 06:58:09;;;;;;;7.20;1.95;;;;;;;18.77;39.17;101141.48;1808714;78;22583;-93
2022/05/13 07:00:36;;;;;;;4.75;1.40;;;;;;;18.79;39.53;101139.69;1801042;78;21066;-87
2022/05/13 07:03:03;;;;;;;3.45;1.65;;;;;;;19.12;39.78;101134.27;1802902;78;21812;-94
2022/05/13 07:05:30;;;;;;;4.22;1.27;;;;;;;19.45;39.60;101135.90;1801243;78;21074;-93
2022/05/13 07:07:57;;;;;;;2.85;1.07;;;;;;;19.73;39.37;101133.10;1814583;78;21062;-93
2022/05/13 07:10:24;;;;;;;7.30;1.40;;;;;;;19.88;39.08;101124.98;1809757;79;22570;-91
2022/05/13 07:12:55;;;;;;;4.50;1.60;;;;;;;19.87;38.84;101119.17;1788706;79;21100;-93
2022/05/13 07:15:22;;;;;;;3.22;1.30;;;;;;;19.90;38.80;101116.95;1770109;80;21101;-93
2022/05/13 07:17:52;;;;;;;4.87;1.82;;;;;;;19.92;38.91;101116.03;1802471;78;21098;-86
2022/05/13 07:20:36;;;;;;;8.78;2.08;;;;;;;19.91;38.79;101116.03;1804232;79;21051;-93
2022/05/13 07:23:03;;;;;;;2.77;1.12;;;;;;;19.79;38.79;101122.37;1805832;78;21868;-87
2022/05/13 07:25:33;;;;;;;8.55;2.10;;;;;;;19.73;38.90;101108.61;1793625;78;21422;-94
2022/05/13 07:28:00;;;;;;;6.83;1.82;;;;;;;19.65;38.85;101121.53;1781326;80;21062;-92
2022/05/13 07:30:27;;;;;;;5.17;1.90;;;;;;;19.52;38.84;101121.63;1780778;80;21615;-86
2022/05/13 07:32:54;;;;;;;7.92;6.62;;;;;;;19.40;38.51;101115.00;1789825;77;21098;-88
2022/05/13 07:35:21;;;;;;;4.55;2.22;;;;;;;19.29;38.54;101119.06;1847022;77;21777;-95
2022/05/13 07:37:48;;;;;;;4.35;1.70;;;;;;;19.23;38.46;101119.98;1843881;77;21065;-87
2022/05/13 07:43:03;;;;;;;2.90;1.32;;;;;;;19.32;38.67;101122.18;1783749;78;21027;-87
2022/05/13 07:45:30;;;;;;;3.30;1.32;;;;;;;19.30;38.71;101123.98;1799385;79;21541;-87
2022/05/13 07:52:20;;;;;;;3.77;1.20;;;;;;;19.16;39.23;101117.34;1818756;78;21007;-91
2022/05/13 07:54:47;;;;;;;7.55;1.12;;;;;;;19.04;39.36;101111.63;1778970;79;21050;-85
2022/05/13 07:57:14;;;;;;;2.92;1.57;;;;;;;19.02;39.45;101112.08;1807317;79;21054;-85
2022/05/13 08:02:26;;;;;;;7.03;1.60;;;;;;;18.69;39.59;101080.59;1809932;78;22727;-88
2022/05/13 08:04:54;;;;;;;4.08;1.27;;;;;;;19.03;39.47;101109.84;1811714;79;21039;-91
2022/05/13 08:07:21;;;;;;;7.33;1.67;;;;;;;19.28;39.70;101111.97;1815108;78;21004;-93
2022/05/13 08:09:47;;;;;;;3.10;1.27;;;;;;;19.66;39.69;101103.29;1796188;79;21047;-87
2022/05/13 08:19:17;;;;;;;6.42;1.40;;;;;;;20.61;38.75;101104.28;1814839;78;21042;-91
2022/05/13 08:21:44;;;;;;;5.42;0.93;;;;;;;20.96;38.54;101091.84;1812278;77;21090;-86
2022/05/13 08:24:35;;;;;;;4.85;1.32;;;;;;;21.19;38.25;101095.58;1813193;78;21078;-92
2022/05/13 08:27:02;;;;;;;2.65;1.10;;;;;;;21.30;37.90;101089.62;1802539;78;21054;-86
2022/05/13 08:29:29;;;;;;;5.37;1.42;;;;;;;21.29;37.41;101097.67;1786842;77;22458;-92
2022/05/13 08:31:58;;;;;;;3.58;1.50;;;;;;;21.19;37.25;101091.98;1781776;79;21061;-87
2022/05/13 08:34:54;;;;;;;8.43;3.12;;;;;;;21.21;36.94;101101.80;1831528;77;21007;-94
2022/05/13 08:37:43;;;;;;;5.12;2.10;;;;;;;21.15;36.59;101101.85;1746030;81;21584;-91
2022/05/13 08:40:27;;;;;;;2.72;1.27;;;;;;;21.04;36.29;101098.00;1693457;82;21090;-89
2022/05/13 08:42:54;;;;;;;5.47;2.17;;;;;;;21.04;36.39;101092.64;1705469;83;21749;-93
2022/05/13 08:45:37;;;;;;;2.95;1.17;;;;;;;21.25;36.36;101097.28;1706154;84;21066;-88
2022/05/13 08:48:04;;;;;;;6.92;1.87;;;;;;;21.27;36.17;101092.33;1692288;83;21114;-86
2022/05/13 08:50:54;;;;;;;4.67;1.87;;;;;;;21.07;35.91;101097.94;1666714;83;21196;-86
2022/05/13 08:53:33;;;;;;;4.97;1.20;;;;;;;20.97;36.03;101097.64;1698545;83;21082;-87
2022/05/13 08:56:08;;;;;;;3.85;1.42;;;;;;;21.02;35.95;101102.48;1701652;83;21781;-92
2022/05/13 08:58:45;;;;;;;6.58;2.52;;;;;;;21.06;35.87;101100.63;1695865;83;21091;-89
2022/05/13 09:01:29;;;;;;;3.10;1.55;;;;;;;21.08;35.72;101094.37;1691565;83;21119;-92
2022/05/13 09:04:01;;;;;;;2.90;2.10;;;;;;;21.37;35.41;101095.76;1696065;82;21666;-88
2022/05/13 09:06:42;;;;;;;4.05;1.50;;;;;;;21.37;35.41;101095.76;1720185;82;21118;-94
2022/05/13 09:09:10;;;;;;;5.53;1.62;;;;;;;21.36;35.55;101098.90;1719844;83;21784;-87
2022/05/13 09:12:06;;;;;;;3.42;1.22;;;;;;;21.28;35.32;101106.59;1719577;83;21069;-93
2022/05/13 09:14:46;;;;;;;4.37;1.20;;;;;;;21.00;35.23;101078.84;1723572;81;21117;-86
2022/05/13 09:17:39;;;;;;;6.25;1.47;;;;;;;20.93;35.27;101095.91;1723127;81;21298;-86
2022/05/13 09:20:14;;;;;;;3.90;1.43;;;;;;;20.69;35.56;101097.95;1688476;81;21097;-86
2022/05/13 09:22:45;;;;;;;2.60;0.78;;;;;;;20.69;35.56;101097.95;1723202;81;23390;-86
2022/05/13 09:25:48;;;;;;;4.22;1.30;;;;;;;20.61;35.44;101087.81;1707120;81;21626;-84
2022/05/13 09:28:32;;;;;;;9.67;2.10;;;;;;;20.70;35.45;101097.07;1683139;84;21671;-93
2022/05/13 09:31:20;;;;;;;3.17;1.22;;;;;;;20.81;35.20;101094.25;1692087;81;21168;-93
2022/05/13 09:33:47;;;;;;;3.52;1.35;;;;;;;20.92;35.39;101091.45;1754109;80;21113;-91
2022/05/13 09:36:26;;;;;;;4.67;1.47;;;;;;;21.05;35.33;101093.06;1779407;78;21794;-92
2022/05/13 09:38:58;;;;;;;3.40;1.27;;;;;;;21.12;35.19;101095.22;1779233;79;21038;-92
2022/05/13 09:41:34;;;;;;;4.65;1.90;;;;;;;21.27;35.26;101090.11;1799249;78;21015;-87
2022/05/13 09:44:22;;;;;;;4.25;1.40;;;;;;;21.61;35.05;101081.16;1811201;77;21058;-87
2022/05/13 09:46:51;;;;;;;4.85;1.25;;;;;;;21.61;35.05;101081.16;1825165;77;21623;-87
2022/05/13 09:49:36;;;;;;;4.12;1.67;;;;;;;21.73;34.74;101072.94;1812218;77;21743;-93
2022/05/13 09:52:12;;;;;;;2.12;1.00;;;;;;;21.95;34.73;101076.59;1821876;78;21528;-86
2022/05/13 09:54:48;;;;;;;7.40;1.98;;;;;;;22.18;34.28;101070.82;1797413;78;21019;-92
2022/05/13 09:57:31;;;;;;;5.30;1.67;;;;;;;22.20;33.92;101065.44;1793205;77;21116;-92
2022/05/13 10:00:19;;;;;;;3.52;1.90;;;;;;;22.19;33.76;101071.27;1789511;79;21171;-94
2022/05/13 10:03:14;;;;;;;4.80;1.55;;;;;;;22.07;33.59;101080.41;1787959;77;22635;-90
2022/05/13 10:05:42;;;;;;;3.70;1.30;;;;;;;21.92;33.87;101070.84;1794800;78;20971;-92
2022/05/13 10:08:09;;;;;;;3.77;1.05;;;;;;;21.99;33.81;101076.09;1838128;76;21046;-86
2022/05/13 10:16:22;;;;;;;3.00;1.22;;;;;;;22.30;33.69;101071.98;1798109;79;21803;-88
2022/05/13 10:18:59;;;;;;;11.78;1.20;;;;;;;22.54;33.75;101067.52;1806811;77;21030;-90
2022/05/13 10:21:41;;;;;;;5.35;1.17;;;;;;;22.63;33.47;101069.55;1840752;77;20998;-92
2022/05/13 10:24:33;;;;;;;4.78;1.05;;;;;;;22.70;33.49;101067.64;1814122;77;21031;-94
2022/05/13 10:27:02;;;;;;;2.42;1.12;;;;;;;22.85;33.52;101067.79;1822651;78;21551;-94
2022/05/13 10:29:36;;;;;;;7.45;1.92;;;;;;;23.02;33.38;101060.72;1794282;77;21484;-93
2022/05/13 10:32:13;;;;;;;3.77;1.22;;;;;;;23.06;33.11;101056.61;1780726;79;21078;-93
2022/05/13 10:35:10;;;;;;;3.12;1.00;;;;;;;23.24;33.04;101059.83;1788291;78;21724;-95
2022/05/13 10:38:15;;;;;;;2.42;1.07;;;;;;;23.38;32.90;101061.72;1780555;79;21038;-89
2022/05/13 10:41:09;;;;;;;7.55;3.25;;;;;;;23.61;32.84;101053.57;1806340;79;21590;-95
2022/05/13 10:43:42;;;;;;;5.23;1.53;;;;;;;23.64;32.37;101052.16;1809624;79;21746;-89
2022/05/13 10:46:39;;;;;;;5.87;1.40;;;;;;;23.64;32.35;101044.09;1806179;78;21327;-85
2022/05/13 10:49:06;;;;;;;2.83;1.27;;;;;;;23.74;32.61;101044.28;1812962;77;21497;-92
2022/05/13 10:51:47;;;;;;;1.80;1.00;;;;;;;23.94;32.22;101045.63;1758414;79;20984;-91
2022/05/13 10:54:28;;;;;;;3.52;0.90;;;;;;;23.98;32.04;101044.16;1737085;82;21069;-90
2022/05/13 10:57:06;;;;;;;3.60;1.37;;;;;;;23.86;31.83;101050.73;1735855;82;21906;-96
2022/05/13 11:00:07;;;;;;;3.40;1.00;;;;;;;23.57;31.94;101044.70;1754909;80;20995;-93
2022/05/13 11:03:22;;;;;;;8.28;1.72;;;;;;;23.29;32.07;101032.38;1714783;82;21084;-87
2022/05/13 11:06:21;;;;;;;3.30;2.00;;;;;;;23.18;32.12;101049.20;1720454;82;21066;-87
2022/05/13 11:09:14;;;;;;;5.58;1.37;;;;;;;23.13;32.20;101044.42;1714179;82;21066;-87
2022/05/13 11:11:46;;;;;;;2.27;1.10;;;;;;;;;;1724689;82;21244;-91
2022/05/13 11:14:41;;;;;;;9.73;3.15;;;;;;;22.87;32.38;101052.06;1689876;83;21509;-88
2022/05/13 11:17:52;;;;;;;4.25;1.35;;;;;;;22.49;32.47;101058.23;1712084;82;21191;-91
2022/05/13 11:20:41;;;;;;;3.95;1.35;;;;;;;22.08;32.50;101052.67;1702089;82;21738;-95
2022/05/13 11:23:42;;;;;;;5.37;1.55;;;;;;;21.58;32.99;101045.49;1712540;82;21089;-91
2022/05/13 11:26:26;;;;;;;4.58;1.70;;;;;;;21.60;33.36;101062.42;1722128;82;23030;-92
2022/05/13 11:29:04;;;;;;;5.50;1.40;;;;;;;21.74;33.71;101055.06;1724216;82;21069;-90
2022/05/13 11:31:57;;;;;;;2.12;1.20;;;;;;;21.90;33.52;101057.02;1728115;81;21579;-88
2022/05/13 11:34:39;;;;;;;2.20;1.22;;;;;;;21.88;33.45;101057.03;1657519;85;21141;-91
2022/05/13 11:37:12;;;;;;;3.72;2.17;;;;;;;21.93;33.66;101048.47;1656707;85;21261;-85
2022/05/13 11:40:02;;;;;;;7.83;1.77;;;;;;;22.14;33.48;101021.73;1648179;86;21698;-85
2022/05/13 11:42:37;;;;;;;3.12;1.27;;;;;;;22.14;33.48;101021.73;1637140;84;21187;-86
2022/05/13 11:45:33;;;;;;;6.12;1.10;;;;;;;22.69;33.46;101035.91;1713528;82;21066;-93
2022/05/13 11:48:31;;;;;;;4.00;1.57;;;;;;;22.85;33.21;101036.92;1711366;83;21394;-91
2022/05/13 11:51:21;;;;;;;3.50;1.40;;;;;;;22.82;33.05;101043.69;1706423;82;21140;-85
2022/05/13 11:54:05;;;;;;;5.03;2.00;;;;;;;22.59;32.81;101037.46;1723486;81;21733;-90
2022/05/13 11:56:35;;;;;;;;;;;;;;;22.22;32.75;101032.77;1711086;83;21125;-83
2022/05/13 11:59:09;;;;;;;6.62;1.27;;;;;;;21.85;32.53;101036.13;1702297;83;20431;-87
2022/05/13 12:01:45;;;;;;;2.75;1.22;;;;;;;21.46;32.73;101047.45;1702936;82;21121;-89
2022/05/13 12:04:23;;;;;;;7.85;1.37;;;;;;;21.07;33.10;101038.18;1694194;83;21106;-89
2022/05/13 12:06:54;;;;;;;9.88;1.77;;;;;;;20.81;33.62;101039.86;1721330;82;21807;-84
2022/05/13 12:09:30;;;;;;;5.25;1.57;;;;;;;20.59;33.91;101049.00;1774058;79;21074;-88
2022/05/13 12:12:26;;;;;;;4.17;1.50;;;;;;;20.34;34.23;101047.03;1774622;79;21097;-84
2022/05/13 12:15:26;;;;;;;2.95;1.60;;;;;;;20.10;34.63;101047.29;1804804;79;21228;-85
2022/05/13 12:18:31;;;;;;;7.33;2.77;;;;;;;19.87;34.91;101046.17;1806912;77;21063;-89
2022/05/13 12:21:12;;;;;;;9.30;3.17;;;;;;;19.72;35.30;101048.48;1792757;77;22607;-89
2022/05/13 12:24:02;;;;;;;3.30;1.80;;;;;;;19.61;35.57;101047.22;1797832;78;21066;-90
2022/05/13 12:27:03;;;;;;;5.30;1.57;;;;;;;19.45;35.87;101041.13;1785941;78;21000;-86
2022/05/13 12:29:42;;;;;;;4.20;1.50;;;;;;;19.37;35.93;101042.94;1784661;78;21094;-85
2022/05/13 12:32:21;;;;;;;6.10;1.52;;;;;;;19.32;36.14;101050.11;1799485;79;21434;-85
2022/05/13 12:37:53;;;;;;;5.78;1.85;;;;;;;19.16;36.39;101055.97;1789777;79;21050;-91
2022/05/13 12:40:31;;;;;;;4.83;1.80;;;;;;;19.00;36.65;101064.52;1806650;79;21031;-86
2022/05/13 12:43:22;;;;;;;6.70;1.62;;;;;;;18.91;37.03;101067.23;1799896;78;21078;-85